createdAt,value
2023-05-19T00:01:31.223Z,101984.56
2023-05-19T00:06:36.873Z,101984.34
2023-05-19T00:11:40.896Z,101983.31
2023-05-19T00:16:44.876Z,101988.00
2023-05-19T00:21:49.898Z,101983.53
2023-05-19T00:26:53.371Z,101984.56
2023-05-19T00:31:57.614Z,101980.53
2023-05-19T00:37:02.746Z,101973.94
2023-05-19T00:42:06.808Z,101975.19
2023-05-19T00:47:10.436Z,101968.78
2023-05-19T00:52:15.771Z,101967.81
2023-05-19T00:57:19.545Z,101970.19
2023-05-19T01:02:23.113Z,101975.72
2023-05-19T01:07:28.777Z,101966.22
2023-05-19T01:12:32.299Z,101958.31
2023-05-19T01:17:38.958Z,101960.13
2023-05-19T01:23:11.076Z,101970.84
2023-05-19T01:28:25.479Z,101966.81
2023-05-19T01:33:31.481Z,101966.00
2023-05-19T01:38:35.899Z,101961.72
2023-05-19T01:43:41.996Z,101954.56
2023-05-19T01:48:47.731Z,101960.97
2023-05-19T01:53:51.312Z,101963.88
2023-05-19T01:59:00.307Z,101977.34
2023-05-19T02:04:14.652Z,101980.50
2023-05-19T02:09:22.539Z,101977.97
2023-05-19T02:14:31.805Z,101967.19
2023-05-19T02:19:39.559Z,101969.09
2023-05-19T02:24:44.360Z,101968.56
2023-05-19T02:29:47.892Z,101973.56
2023-05-19T02:34:53.229Z,101962.81
2023-05-19T02:39:56.926Z,101965.53
2023-05-19T02:45:01.224Z,101964.72
2023-05-19T02:50:07.503Z,101961.53
2023-05-19T02:55:16.852Z,101960.34
2023-05-19T03:00:20.633Z,101954.59
2023-05-19T03:05:25.588Z,101956.75
2023-05-19T03:10:29.172Z,101954.28
2023-05-19T03:15:33.258Z,101957.66
2023-05-19T03:20:40.293Z,101950.66
2023-05-19T03:25:45.049Z,101948.75
2023-05-19T03:30:50.082Z,101949.31
2023-05-19T03:35:57.512Z,101940.84
2023-05-19T03:41:01.052Z,101958.03
2023-05-19T03:46:04.705Z,101947.78
2023-05-19T03:51:28.614Z,101952.06
2023-05-19T03:56:35.352Z,101955.84
2023-05-19T04:01:38.810Z,101952.06
2023-05-19T04:06:43.718Z,101956.53
2023-05-19T04:11:47.238Z,101954.22
2023-05-19T04:16:50.930Z,101949.75
2023-05-19T04:21:56.972Z,101956.59
2023-05-19T04:27:02.566Z,101958.16
2023-05-19T04:32:07.907Z,101970.03
2023-05-19T04:37:14.087Z,101961.84
2023-05-19T04:42:19.526Z,101957.44
2023-05-19T04:47:28.060Z,101964.09
2023-05-19T04:52:33.301Z,101965.16
2023-05-19T04:57:38.828Z,101969.97
2023-05-19T05:02:43.535Z,101959.38
2023-05-19T05:07:49.454Z,101964.75
2023-05-19T05:12:54.033Z,101963.69
2023-05-19T05:17:58.252Z,101966.66
2023-05-19T05:23:04.114Z,101966.22
2023-05-19T05:28:09.076Z,101965.72
2023-05-19T05:33:14.349Z,101959.81
2023-05-19T05:38:19.948Z,101953.56
2023-05-19T05:43:23.771Z,101952.31
2023-05-19T05:48:33.762Z,101950.03
2023-05-19T05:53:45.637Z,101940.00
2023-05-19T05:58:51.984Z,101948.97
2023-05-19T06:03:55.567Z,101958.28
2023-05-19T06:09:02.136Z,101951.63
2023-05-19T06:14:06.557Z,101960.25
2023-05-19T06:19:27.911Z,101961.03
2023-05-19T06:24:32.844Z,101959.31
2023-05-19T06:29:36.443Z,101959.59
2023-05-19T06:34:43.058Z,101955.03
2023-05-19T06:39:48.221Z,101951.75
2023-05-19T06:44:51.860Z,101944.19
2023-05-19T06:49:55.952Z,101946.03
2023-05-19T06:55:05.160Z,101945.06
2023-05-19T07:00:12.966Z,101938.28
2023-05-19T07:05:20.557Z,101945.59
2023-05-19T07:10:30.412Z,101947.19
2023-05-19T07:15:34.681Z,101941.72
2023-05-19T07:20:38.423Z,101942.00
2023-05-19T07:25:43.452Z,101941.44
2023-05-19T07:30:47.025Z,101930.13
2023-05-19T07:35:50.745Z,101913.69
2023-05-19T07:40:55.657Z,101920.22
2023-05-19T07:46:03.426Z,101919.44
2023-05-19T07:51:10.168Z,101928.44
2023-05-19T07:56:15.099Z,101921.84
2023-05-19T08:01:18.554Z,101914.59
2023-05-19T08:06:22.502Z,101903.09
2023-05-19T08:11:27.506Z,101908.16
2023-05-19T08:16:31.106Z,101909.00
2023-05-19T08:21:35.457Z,101902.09
2023-05-19T08:26:40.291Z,101901.09
2023-05-19T08:31:45.879Z,101898.22
2023-05-19T08:36:50.074Z,101901.72
2023-05-19T08:41:55.530Z,101898.34
2023-05-19T08:47:02.478Z,101889.75
2023-05-19T08:52:11.239Z,101888.41
2023-05-19T08:57:16.300Z,101874.09
2023-05-19T09:02:20.928Z,101871.84
2023-05-19T09:07:26.633Z,101863.63
2023-05-19T09:12:31.938Z,101870.28
2023-05-19T09:17:37.112Z,101850.13
2023-05-19T09:22:45.232Z,101851.28
2023-05-19T09:27:52.052Z,101852.47
2023-05-19T09:32:55.776Z,101840.50
2023-05-19T09:38:10.022Z,101849.44
2023-05-19T09:43:16.434Z,101833.94
2023-05-19T09:48:24.341Z,101824.81
2023-05-19T09:53:32.687Z,101819.47
2023-05-19T09:58:39.108Z,101817.84
2023-05-19T10:03:46.258Z,101813.69
2023-05-19T10:08:55.619Z,101807.81
2023-05-19T10:14:01.684Z,101811.59
2023-05-19T10:19:05.858Z,101807.97
2023-05-19T10:24:11.504Z,101790.22
2023-05-19T10:29:19.385Z,101777.53
2023-05-19T10:34:40.638Z,101790.81
2023-05-19T10:39:45.541Z,101784.78
2023-05-19T10:44:59.978Z,101780.31
2023-05-19T10:50:03.701Z,101769.81
2023-05-19T10:55:10.080Z,101771.09
2023-05-19T11:00:31.283Z,101766.88
2023-05-19T11:05:37.893Z,101757.44
2023-05-19T11:10:45.004Z,101771.13
2023-05-19T11:15:50.806Z,101767.63
2023-05-19T11:20:59.104Z,101759.88
2023-05-19T11:26:03.408Z,101751.50
2023-05-19T11:31:10.387Z,101747.13
2023-05-19T11:36:13.894Z,101758.31
2023-05-19T11:41:18.897Z,101755.00
2023-05-19T11:46:26.331Z,101739.06
2023-05-19T11:51:29.888Z,101741.78
2023-05-19T11:56:35.499Z,101741.94
2023-05-19T12:01:40.399Z,101741.19
2023-05-19T12:06:43.914Z,101737.00
2023-05-19T12:11:47.466Z,101714.38
2023-05-19T12:16:52.397Z,101720.81
2023-05-19T12:21:56.164Z,101721.59
2023-05-19T12:27:07.368Z,101707.72
2023-05-19T12:32:12.811Z,101704.38
2023-05-19T12:37:16.306Z,101702.63
2023-05-19T12:42:19.755Z,101692.56
2023-05-19T12:47:31.089Z,101703.28
2023-05-19T12:52:36.387Z,101695.91
2023-05-19T12:57:40.994Z,101697.91
2023-05-19T13:03:00.345Z,101685.63
2023-05-19T13:08:06.898Z,101698.06
2023-05-19T13:13:10.806Z,101675.56
2023-05-19T13:18:16.435Z,101683.94
2023-05-19T13:23:20.068Z,101684.28
2023-05-19T13:28:23.724Z,101674.31
2023-05-19T13:33:28.669Z,101686.09
2023-05-19T13:38:32.097Z,101699.66
2023-05-19T13:43:35.726Z,101698.81
2023-05-19T13:48:40.680Z,101670.22
2023-05-19T13:53:44.273Z,101651.59
2023-05-19T13:58:48.049Z,101674.28
2023-05-19T14:03:53.533Z,101680.28
2023-05-19T14:08:57.388Z,101675.28
2023-05-19T14:14:00.821Z,101675.69
2023-05-19T14:19:06.072Z,101658.94
2023-05-19T14:24:09.954Z,101659.06
2023-05-19T14:29:13.731Z,101662.94
2023-05-19T14:34:20.963Z,101656.53
2023-05-19T14:39:24.569Z,101660.16
2023-05-19T14:44:32.957Z,101646.41
2023-05-19T14:49:38.014Z,101651.25
2023-05-19T14:54:41.511Z,101664.03
2023-05-19T14:59:45.038Z,101657.75
2023-05-19T15:04:49.879Z,101639.78
2023-05-19T15:09:53.633Z,101642.97
2023-05-19T15:14:57.163Z,101632.97
2023-05-19T15:20:02.135Z,101637.50
2023-05-19T15:25:07.016Z,101644.34
2023-05-19T15:30:11.197Z,101648.94
2023-05-19T15:35:16.091Z,101646.22
2023-05-19T15:40:19.694Z,101654.72
2023-05-19T15:45:23.466Z,101660.41
2023-05-19T15:50:28.473Z,101650.28
2023-05-19T15:55:31.971Z,101647.88
2023-05-19T16:00:35.743Z,101630.56
2023-05-19T16:05:40.680Z,101630.53
2023-05-19T16:10:44.156Z,101625.72
2023-05-19T16:15:47.751Z,101624.31
2023-05-19T16:20:53.021Z,101629.81
2023-05-19T16:25:57.521Z,101629.63
2023-05-19T16:31:01.244Z,101628.34
2023-05-19T16:36:06.438Z,101608.41
2023-05-19T16:41:12.846Z,101613.84
2023-05-19T16:46:16.713Z,101606.88
2023-05-19T16:51:21.912Z,101615.88
2023-05-19T16:56:25.407Z,101626.63
2023-05-19T17:01:29.032Z,101623.16
2023-05-19T17:06:33.889Z,101624.38
2023-05-19T17:11:37.645Z,101621.72
2023-05-19T17:16:41.178Z,101620.69
2023-05-19T17:21:46.411Z,101620.28
2023-05-19T17:26:50.005Z,101626.53
2023-05-19T17:31:53.570Z,101622.75
2023-05-19T17:36:58.480Z,101619.47
2023-05-19T17:42:02.054Z,101630.63
2023-05-19T17:47:07.975Z,101624.78
2023-05-19T17:52:13.599Z,101621.22
2023-05-19T17:57:18.238Z,101626.00
2023-05-19T18:02:22.197Z,101624.72
2023-05-19T18:07:28.425Z,101630.13
2023-05-19T18:12:31.871Z,101630.84
2023-05-19T18:17:35.480Z,101619.25
2023-05-19T18:22:40.558Z,101617.06
2023-05-19T18:27:44.779Z,101616.00
2023-05-19T18:32:48.549Z,101614.34
2023-05-19T18:37:55.803Z,101632.06
2023-05-19T18:42:59.318Z,101620.63
2023-05-19T18:48:02.804Z,101633.31
2023-05-19T18:53:07.661Z,101641.75
2023-05-19T18:58:11.191Z,101645.47
2023-05-19T19:03:14.791Z,101646.75
2023-05-19T19:08:19.655Z,101653.91
2023-05-19T19:13:23.180Z,101655.38
2023-05-19T19:18:27.070Z,101655.94
2023-05-19T19:23:32.287Z,101661.66
2023-05-19T19:28:36.408Z,101666.50
2023-05-19T19:33:41.420Z,101668.59
2023-05-19T19:38:46.349Z,101673.81
2023-05-19T19:43:50.925Z,101677.53
2023-05-19T19:48:58.093Z,101684.72
2023-05-19T19:54:03.238Z,101687.41
2023-05-19T19:59:06.822Z,101691.31
2023-05-19T20:04:10.572Z,101691.31
2023-05-19T20:09:15.583Z,101691.56
2023-05-19T20:14:19.324Z,101701.97
2023-05-19T20:19:25.271Z,101702.09
2023-05-19T20:24:30.265Z,101707.66
2023-05-19T20:29:33.850Z,101703.28
2023-05-19T20:34:37.593Z,101705.69
2023-05-19T20:39:42.558Z,101713.06
2023-05-19T20:44:46.217Z,101715.31
2023-05-19T20:49:49.760Z,101720.41
2023-05-19T20:54:54.914Z,101723.56
2023-05-19T20:59:58.480Z,101725.16
2023-05-19T21:05:02.262Z,101725.97
2023-05-19T21:10:08.582Z,101731.81
2023-05-19T21:15:12.749Z,101724.66
2023-05-19T21:20:16.377Z,101721.38
2023-05-19T21:25:22.098Z,101722.91
2023-05-19T21:30:26.633Z,101728.03
2023-05-19T21:35:30.570Z,101730.41
2023-05-19T21:40:35.606Z,101733.97
2023-05-19T21:45:44.957Z,101743.09
2023-05-19T21:50:53.430Z,101743.97
2023-05-19T21:55:58.359Z,101750.50
2023-05-19T22:01:02.112Z,101759.78
2023-05-19T22:06:06.502Z,101757.66
2023-05-19T22:11:11.457Z,101759.34
2023-05-19T22:16:15.001Z,101748.59
2023-05-19T22:21:18.913Z,101756.94
2023-05-19T22:26:23.840Z,101761.66
2023-05-19T22:31:27.372Z,101748.56
2023-05-19T22:36:31.187Z,101752.63
2023-05-19T22:41:36.240Z,101745.28
2023-05-19T22:46:39.762Z,101753.66
2023-05-19T22:51:43.206Z,101761.38
2023-05-19T22:56:48.946Z,101765.00
2023-05-19T23:01:52.545Z,101752.97
2023-05-19T23:06:56.081Z,101759.84
2023-05-19T23:12:00.897Z,101765.47
2023-05-19T23:17:04.634Z,101776.19
2023-05-19T23:22:08.633Z,101770.59
2023-05-19T23:27:14.142Z,101781.38
2023-05-19T23:32:17.797Z,101778.81
2023-05-19T23:37:21.320Z,101782.81
2023-05-19T23:42:26.432Z,101784.13
2023-05-19T23:47:29.942Z,101781.81
2023-05-19T23:52:33.677Z,101782.50
2023-05-19T23:57:38.576Z,101780.72
